Time;durP1;ratioP1;P1;durP2;ratioP2;P2;SDS_P1;SDS_P2;PMS_P1;PMS_P2;Temp;Humidity;BMP_temperature;BMP_pressure;BME280_temperature;BME280_humidity;BME280_pressure;Samples;Min_cycle;Max_cycle;Signal;HPM_P1;HPM_P2
2021/07/24 04:30:21;;;;;;;23.35;14.10;;;17.70;99.90;;;;;;6046273;23;1504409;-93
2021/07/24 04:33:09;;;;;;;23.40;14.48;;;17.60;99.90;;;;;;6098647;23;20034;-89
2021/07/24 04:36:05;;;;;;;22.45;14.30;;;17.60;99.90;;;;;;6106974;23;20022;-91
2021/07/24 04:38:58;;;;;;;23.63;14.13;;;17.60;99.90;;;;;;6109917;23;20026;-90
2021/07/24 04:41:45;;;;;;;22.95;14.30;;;17.60;99.90;;;;;;6103984;23;20097;-89
2021/07/24 04:44:44;;;;;;;24.27;14.20;;;17.70;99.90;;;;;;6098032;23;20590;-91
2021/07/24 04:47:37;;;;;;;19.90;14.82;;;17.70;99.90;;;;;;6098877;23;20614;-91
2021/07/24 04:50:27;;;;;;;18.80;14.07;;;17.80;99.90;;;;;;6099561;23;20037;-91
2021/07/24 04:53:19;;;;;;;22.40;13.82;;;17.80;99.90;;;;;;6098124;23;20054;-90
2021/07/24 04:56:11;;;;;;;20.63;14.15;;;17.80;99.90;;;;;;6100114;23;20117;-91
2021/07/24 04:59:01;;;;;;;20.53;14.00;;;17.70;99.90;;;;;;6100971;23;20026;-89
2021/07/24 05:01:57;;;;;;;24.17;14.00;;;17.80;99.90;;;;;;6102084;23;20026;-90
2021/07/24 05:04:47;;;;;;;19.45;14.57;;;17.90;99.90;;;;;;6079782;23;20437;-91
2021/07/24 05:07:36;;;;;;;20.02;14.63;;;18.00;99.90;;;;;;6100365;23;20307;-91
2021/07/24 05:10:23;;;;;;;21.08;14.15;;;18.20;99.90;;;;;;6099155;23;20426;-91
2021/07/24 05:13:10;;;;;;;20.75;14.35;;;18.40;99.90;;;;;;6098845;23;20023;-91
2021/07/24 05:15:58;;;;;;;21.58;14.52;;;18.50;99.90;;;;;;6097929;23;20034;-91
2021/07/24 05:18:56;;;;;;;22.50;13.80;;;18.70;99.90;;;;;;6099596;23;20050;-91
2021/07/24 05:21:43;;;;;;;18.13;13.57;;;18.80;99.90;;;;;;6079416;23;20023;-90
2021/07/24 05:24:36;;;;;;;20.63;13.48;;;19.00;99.90;;;;;;6097593;23;20311;-91
2021/07/24 05:27:23;;;;;;;;;;;19.20;99.90;;;;;;6098483;23;20085;-91
2021/07/24 05:30:17;;;;;;;23.52;13.05;;;19.40;99.90;;;;;;6098842;23;19933;-91
2021/07/24 05:33:07;;;;;;;19.90;13.32;;;19.50;99.90;;;;;;6102798;23;20026;-92
2021/07/24 05:35:56;;;;;;;21.10;13.53;;;19.50;99.90;;;;;;6105020;23;20033;-90
2021/07/24 05:38:45;;;;;;;20.95;13.73;;;19.60;99.90;;;;;;6101077;23;20109;-90
2021/07/24 05:41:37;;;;;;;17.52;13.77;;;19.50;99.90;;;;;;6100357;23;20030;-92
2021/07/24 05:44:24;;;;;;;19.88;12.90;;;19.50;99.90;;;;;;6105177;23;20030;-91
2021/07/24 05:47:22;;;;;;;20.25;12.52;;;19.60;99.90;;;;;;6101666;23;20029;-91
2021/07/24 05:50:14;;;;;;;19.13;13.02;;;19.60;99.90;;;;;;6107357;23;20393;-92
2021/07/24 05:53:02;;;;;;;25.38;14.63;;;19.70;99.90;;;;;;6104578;23;20026;-89
2021/07/24 05:55:50;;;;;;;21.83;13.00;;;19.60;99.90;;;;;;6106090;23;20022;-91
2021/07/24 05:58:52;;;;;;;18.25;13.30;;;19.60;99.90;;;;;;6097974;23;20030;-91
2021/07/24 06:01:40;;;;;;;17.10;12.75;;;19.60;99.90;;;;;;6098868;23;20027;-90
2021/07/24 06:04:50;;;;;;;21.30;13.07;;;19.70;99.90;;;;;;5970110;24;20454;-92
2021/07/24 06:07:50;;;;;;;16.45;12.63;;;19.70;99.90;;;;;;5947341;24;20056;-92
2021/07/24 06:10:43;;;;;;;18.58;13.40;;;19.80;99.90;;;;;;5965496;24;20123;-92
2021/07/24 06:14:03;;;;;;;20.45;14.18;;;19.90;99.90;;;;;;5971439;24;20031;-92
2021/07/24 06:17:57;;;;;;;21.80;14.30;;;19.90;99.90;;;;;;5985085;24;20043;-92
2021/07/24 06:21:13;;;;;;;20.08;13.23;;;19.90;99.90;;;;;;5965117;24;20031;-92
2021/07/24 06:24:07;;;;;;;27.23;13.23;;;19.90;99.90;;;;;;6099165;23;20041;-92
2021/07/24 06:26:57;;;;;;;17.35;12.80;;;20.00;99.90;;;;;;6101801;23;20033;-92
2021/07/24 06:30:01;;;;;;;16.25;12.27;;;20.20;99.90;;;;;;6113495;23;20030;-90
2021/07/24 06:32:55;;;;;;;21.90;13.63;;;20.20;99.90;;;;;;6110880;23;20078;-92
2021/07/24 06:35:49;;;;;;;27.67;13.27;;;20.30;99.90;;;;;;6055313;23;20027;-92
2021/07/24 06:38:41;;;;;;;21.02;13.38;;;20.30;99.90;;;;;;6051163;23;20027;-91
2021/07/24 06:41:33;;;;;;;17.80;12.20;;;20.40;99.90;;;;;;6050595;23;20027;-92
2021/07/24 06:44:34;;;;;;;15.57;12.50;;;20.50;99.90;;;;;;6050478;23;20093;-92
2021/07/24 06:47:27;;;;;;;20.98;12.70;;;20.70;99.90;;;;;;6046558;23;20035;-90
2021/07/24 06:50:36;;;;;;;20.77;13.75;;;20.80;99.90;;;;;;6010104;23;20031;-92
2021/07/24 06:54:03;;;;;;;19.90;12.70;;;20.80;99.90;;;;;;6029026;23;20043;-92
2021/07/24 06:57:05;;;;;;;21.17;12.95;;;20.70;99.90;;;;;;6034933;23;20126;-92
2021/07/24 07:00:32;;;;;;;;;;;;;;;;;;;;;
2021/07/24 07:04:04;;;;;;;17.77;13.35;;;20.50;99.90;;;;;;6059639;23;20007;-91
2021/07/24 07:11:31;;;;;;;;;;;;;;;;;;;;;
2021/07/24 07:19:06;;;;;;;;;;;;;;;;;;;;;
2021/07/24 07:26:56;;;;;;;20.65;14.73;;;20.60;99.90;;;;;;5846324;24;20133;-91
2021/07/24 07:29:48;;;;;;;;;;;20.70;99.90;;;;;;5812305;24;20030;-92
2021/07/24 07:32:38;;;;;;;16.65;12.65;;;20.80;99.90;;;;;;5828810;24;19967;-91
2021/07/24 07:35:35;;;;;;;23.15;13.80;;;21.00;99.90;;;;;;5899207;24;20384;-91
2021/07/24 07:38:23;;;;;;;18.08;13.77;;;21.00;99.90;;;;;;5884473;24;20033;-91
2021/07/24 07:41:17;;;;;;;22.42;14.95;;;20.90;99.90;;;;;;5915481;24;20028;-90
2021/07/24 07:44:10;;;;;;;19.40;14.48;;;20.60;99.90;;;;;;5965032;24;20132;-89
2021/07/24 07:46:59;;;;;;;20.13;14.30;;;20.40;99.90;;;;;;5965178;24;20066;-90
2021/07/24 07:49:47;;;;;;;22.85;13.85;;;20.40;99.90;;;;;;5982388;24;20038;-91
2021/07/24 07:52:35;;;;;;;26.48;15.07;;;20.40;99.90;;;;;;5964760;24;20052;-92
2021/07/24 07:55:25;;;;;;;26.35;15.02;;;20.30;99.90;;;;;;5983334;23;20055;-90
2021/07/24 07:58:15;;;;;;;;;;;20.20;99.90;;;;;;5994919;23;20037;-90
2021/07/24 08:01:15;;;;;;;21.42;14.07;;;20.20;99.90;;;;;;6053267;23;19970;-92
2021/07/24 08:04:18;;;;;;;19.58;14.25;;;20.20;99.90;;;;;;6075077;23;20428;-90
2021/07/24 08:07:18;;;;;;;24.00;14.52;;;20.30;99.90;;;;;;6032149;23;20035;-92
2021/07/24 08:10:21;;;;;;;24.13;15.05;;;20.40;99.90;;;;;;6069033;23;20446;-89
2021/07/24 08:13:17;;;;;;;19.52;14.90;;;20.30;99.90;;;;;;6048843;23;20031;-90
2021/07/24 08:16:12;;;;;;;22.38;15.15;;;20.10;99.90;;;;;;6049378;23;20078;-90
2021/07/24 08:19:00;;;;;;;21.58;14.35;;;20.20;99.90;;;;;;6055796;23;20023;-90
2021/07/24 08:21:47;;;;;;;22.25;15.65;;;20.20;99.90;;;;;;6075217;23;20023;-89
2021/07/24 08:24:38;;;;;;;25.52;15.52;;;20.30;99.90;;;;;;6051730;23;20026;-90
2021/07/24 08:27:26;;;;;;;23.02;15.15;;;20.40;99.90;;;;;;6068694;23;20082;-91
2021/07/24 08:30:14;;;;;;;23.77;15.38;;;20.70;99.90;;;;;;6081409;23;20026;-89
2021/07/24 08:33:02;;;;;;;22.88;14.70;;;20.90;99.90;;;;;;6096254;23;20037;-90
2021/07/24 08:35:53;;;;;;;18.35;13.68;;;21.40;99.90;;;;;;6098712;23;20027;-92
2021/07/24 08:38:40;;;;;;;20.33;13.55;;;21.80;99.90;;;;;;6093895;23;20423;-90
2021/07/24 08:41:28;;;;;;;19.92;13.80;;;22.30;99.90;;;;;;6096524;23;20101;-91
2021/07/24 08:44:16;;;;;;;17.83;13.65;;;22.90;99.90;;;;;;6104127;23;20030;-90
2021/07/24 08:47:07;;;;;;;19.33;13.98;;;23.30;99.90;;;;;;6079257;23;20026;-90
2021/07/24 08:50:15;;;;;;;22.30;13.65;;;23.70;99.90;;;;;;6098516;23;20093;-90
2021/07/24 08:53:07;;;;;;;17.33;13.32;;;24.10;99.90;;;;;;6067291;23;20138;-90
2021/07/24 08:56:06;;;;;;;16.20;12.90;;;24.60;99.90;;;;;;6049155;23;20027;-90
2021/07/24 08:58:59;;;;;;;19.35;13.07;;;25.10;99.90;;;;;;6048794;23;20051;-89
2021/07/24 09:01:52;;;;;;;18.60;12.75;;;25.80;99.90;;;;;;6047741;23;20074;-92
2021/07/24 09:04:46;;;;;;;18.30;11.68;;;26.30;99.90;;;;;;6045452;23;20117;-93
2021/07/24 09:07:47;;;;;;;;;;;;;;;;;;;;;
2021/07/24 09:10:51;;;;;;;;;;;;;;;;;;;;;
2021/07/24 09:14:16;;;;;;;17.67;11.57;;;25.50;99.70;;;;;;6061899;23;20027;-92
2021/07/24 09:17:06;;;;;;;18.80;12.00;;;25.60;99.80;;;;;;6072032;23;20139;-91
2021/07/24 09:20:23;;;;;;;14.57;11.65;;;25.60;99.20;;;;;;6073697;23;20022;-92
2021/07/24 09:23:41;;;;;;;13.00;11.20;;;26.10;98.90;;;;;;6058761;23;20058;-89
2021/07/24 09:26:33;;;;;;;16.30;10.45;;;27.10;94.30;;;;;;6032972;23;20030;-91
2021/07/24 09:29:21;;;;;;;12.18;10.52;;;27.60;92.00;;;;;;6097702;23;20098;-89
2021/07/24 09:32:09;;;;;;;12.50;9.55;;;27.80;88.40;;;;;;6096216;23;20030;-89
2021/07/24 09:34:56;;;;;;;15.13;9.55;;;28.10;84.40;;;;;;6096057;23;20063;-91
2021/07/24 09:37:44;;;;;;;11.20;8.15;;;28.40;81.90;;;;;;6097076;23;20417;-90
2021/07/24 09:40:33;;;;;;;14.02;9.05;;;27.90;78.80;;;;;;6096755;23;20022;-90
2021/07/24 09:43:32;;;;;;;11.77;8.75;;;27.40;79.60;;;;;;6099627;23;20034;-92
2021/07/24 09:46:27;;;;;;;13.65;8.85;;;27.90;79.30;;;;;;6108464;23;20078;-95
2021/07/24 09:49:14;;;;;;;;;;;28.70;74.50;;;;;;6100548;23;20105;-93
2021/07/24 09:52:24;;;;;;;9.50;8.30;;;29.20;72.20;;;;;;6100014;23;20323;-90
2021/07/24 09:55:30;;;;;;;13.35;7.50;;;28.60;71.50;;;;;;6080495;23;20078;-90
2021/07/24 09:58:27;;;;;;;11.18;6.55;;;28.80;69.50;;;;;;6092332;23;20049;-91
2021/07/24 10:01:21;;;;;;;9.85;6.78;;;29.00;67.00;;;;;;6112995;23;20048;-91
2021/07/24 10:04:11;;;;;;;8.77;7.03;;;28.90;67.30;;;;;;6102365;23;20069;-89
2021/07/24 10:07:15;;;;;;;10.73;6.28;;;28.80;65.20;;;;;;6097338;23;20085;-91
2021/07/24 10:10:04;;;;;;;10.90;6.88;;;29.20;63.70;;;;;;6094306;23;20034;-90
2021/07/24 10:12:52;;;;;;;12.57;7.40;;;29.70;62.60;;;;;;6094277;23;20045;-91
2021/07/24 10:15:41;;;;;;;10.00;6.88;;;29.30;60.50;;;;;;6101135;23;20090;-92
2021/07/24 10:18:29;;;;;;;11.15;6.93;;;29.20;61.10;;;;;;6101227;23;20067;-91
2021/07/24 10:21:19;;;;;;;10.77;6.47;;;29.70;60.00;;;;;;6096674;23;20476;-91
2021/07/24 10:24:06;;;;;;;9.88;7.20;;;29.30;59.80;;;;;;6096919;23;20054;-90
2021/07/24 10:27:10;;;;;;;10.68;6.95;;;28.40;63.90;;;;;;6096193;23;20094;-89
2021/07/24 10:30:03;;;;;;;11.73;7.18;;;28.30;63.30;;;;;;6095507;23;20026;-88
2021/07/24 10:32:52;;;;;;;10.85;7.20;;;27.80;65.10;;;;;;6097492;23;20041;-91
2021/07/24 10:35:41;;;;;;;11.00;6.75;;;27.80;69.30;;;;;;6095290;23;20136;-91
2021/07/24 10:38:33;;;;;;;10.55;6.82;;;28.70;65.30;;;;;;6095542;23;20077;-91
2021/07/24 10:41:25;;;;;;;9.98;7.05;;;28.90;64.10;;;;;;6094668;23;20044;-89
2021/07/24 10:44:37;;;;;;;9.00;6.50;;;28.70;62.10;;;;;;6097868;23;20434;-90
2021/07/24 10:47:24;;;;;;;11.10;6.70;;;28.60;62.30;;;;;;6097258;23;20465;-90
2021/07/24 10:50:11;;;;;;;10.93;6.57;;;28.10;63.60;;;;;;6096494;23;20066;-90
2021/07/24 10:53:06;;;;;;;7.72;6.50;;;28.80;63.80;;;;;;6097696;23;20089;-90
2021/07/24 10:55:55;;;;;;;10.45;7.07;;;29.10;62.30;;;;;;6098880;23;20026;-91
2021/07/24 10:59:14;;;;;;;14.10;7.82;;;29.80;60.30;;;;;;6096263;23;20086;-89
2021/07/24 11:02:04;;;;;;;11.02;6.88;;;30.10;59.10;;;;;;6097203;23;20071;-90
2021/07/24 11:04:52;;;;;;;14.43;6.97;;;29.50;59.80;;;;;;6097692;23;20329;-88
2021/07/24 11:07:40;;;;;;;9.60;7.32;;;29.30;60.00;;;;;;6098579;23;20073;-88
2021/07/24 11:10:31;;;;;;;11.57;7.78;;;28.30;61.60;;;;;;6113798;23;20070;-89
2021/07/24 11:13:47;;;;;;;15.65;8.25;;;27.50;64.90;;;;;;6099231;23;20031;-88
2021/07/24 11:17:19;;;;;;;12.18;7.72;;;26.60;68.10;;;;;;6096225;23;20037;-90
2021/07/24 11:20:08;;;;;;;12.07;8.20;;;26.10;70.00;;;;;;6098195;23;20042;-89
2021/07/24 11:23:00;;;;;;;19.95;7.97;;;25.60;72.70;;;;;;6097412;23;20030;-91
2021/07/24 11:25:51;;;;;;;12.90;9.00;;;25.40;75.00;;;;;;6093733;23;20079;-90
2021/07/24 11:28:48;;;;;;;15.68;8.35;;;25.20;76.80;;;;;;6095607;23;20027;-91
2021/07/24 11:31:42;;;;;;;11.77;8.20;;;25.00;78.00;;;;;;6095179;23;20129;-90
2021/07/24 11:34:36;;;;;;;14.32;8.40;;;24.90;79.20;;;;;;6095280;23;20124;-92
2021/07/24 11:37:37;;;;;;;12.50;9.32;;;24.90;79.80;;;;;;6097430;23;20144;-93
2021/07/24 11:40:26;;;;;;;11.95;8.43;;;25.10;80.30;;;;;;6098033;23;20332;-90
2021/07/24 11:43:14;;;;;;;15.73;8.38;;;25.20;80.60;;;;;;6096366;23;20211;-89
2021/07/24 11:46:05;;;;;;;13.23;9.02;;;25.30;80.80;;;;;;6099303;23;20110;-88
2021/07/24 11:49:02;;;;;;;12.00;8.63;;;25.70;80.70;;;;;;6098278;23;20310;-90
2021/07/24 11:51:53;;;;;;;14.57;8.27;;;26.20;77.70;;;;;;6098931;23;20026;-93
2021/07/24 11:54:40;;;;;;;12.43;9.25;;;26.70;76.00;;;;;;6100387;23;20027;-87
2021/07/24 11:57:32;;;;;;;12.65;8.38;;;26.80;76.20;;;;;;6097653;23;20122;-91
2021/07/24 12:00:36;;;;;;;9.80;7.85;;;27.70;72.70;;;;;;6095138;23;20033;-91
2021/07/24 12:03:29;;;;;;;10.32;8.35;;;28.70;69.30;;;;;;6097987;23;20030;-89
2021/07/24 12:06:17;;;;;;;13.15;7.97;;;28.50;67.60;;;;;;6097112;23;20325;-90
2021/07/24 12:09:08;;;;;;;13.32;8.00;;;29.00;69.30;;;;;;6096156;23;20114;-91
2021/07/24 12:12:02;;;;;;;13.23;8.00;;;28.90;65.00;;;;;;6096710;23;20081;-91
2021/07/24 12:14:58;;;;;;;13.98;7.70;;;28.40;67.70;;;;;;6096829;23;20463;-89
2021/07/24 12:17:51;;;;;;;13.95;8.70;;;27.10;69.60;;;;;;6094193;23;20054;-89
2021/07/24 12:20:41;;;;;;;9.98;8.05;;;27.40;70.70;;;;;;6098287;23;20023;-88
2021/07/24 12:23:29;;;;;;;13.57;8.15;;;28.50;69.90;;;;;;6077333;23;20034;-90
2021/07/24 12:26:28;;;;;;;10.95;8.20;;;29.50;65.60;;;;;;6095647;23;20050;-92
2021/07/24 12:29:15;;;;;;;13.40;8.10;;;30.10;64.00;;;;;;6097704;23;20098;-92
2021/07/24 12:32:11;;;;;;;10.77;7.22;;;30.60;61.00;;;;;;6096909;23;20085;-91
2021/07/24 12:35:16;;;;;;;9.77;7.25;;;30.90;59.90;;;;;;6094612;23;20026;-91
2021/07/24 12:38:04;;;;;;;10.10;7.40;;;31.10;58.60;;;;;;6096534;23;20045;-90
2021/07/24 12:41:02;;;;;;;9.98;7.15;;;30.90;58.40;;;;;;6097305;23;20026;-92
2021/07/24 12:44:08;;;;;;;12.25;6.88;;;30.30;60.50;;;;;;6096649;23;20447;-87
2021/07/24 12:47:16;;;;;;;10.32;7.35;;;29.00;61.70;;;;;;6095765;23;20030;-90
2021/07/24 12:50:19;;;;;;;13.48;7.88;;;28.00;63.30;;;;;;6095183;23;20055;-89
2021/07/24 12:53:08;;;;;;;16.38;7.90;;;27.60;66.70;;;;;;6096836;23;20489;-89
2021/07/24 12:55:55;;;;;;;10.82;7.32;;;26.90;69.20;;;;;;6096164;23;20022;-89
2021/07/24 12:58:42;;;;;;;16.38;8.32;;;26.50;71.10;;;;;;6104241;23;20085;-87
2021/07/24 13:01:30;;;;;;;13.93;7.85;;;26.20;73.70;;;;;;6106655;23;20027;-87
2021/07/24 13:04:17;;;;;;;11.75;7.80;;;26.10;72.30;;;;;;6095037;23;20026;-86
2021/07/24 13:07:06;;;;;;;13.27;8.15;;;26.10;73.40;;;;;;6093573;23;20046;-87
2021/07/24 13:09:58;;;;;;;14.65;8.32;;;26.10;73.60;;;;;;6094301;23;20122;-86
2021/07/24 13:12:45;;;;;;;9.32;7.90;;;26.40;74.30;;;;;;6091698;23;20042;-84
2021/07/24 13:15:32;;;;;;;11.95;8.60;;;26.50;74.10;;;;;;6094057;23;20117;-86
2021/07/24 13:18:20;;;;;;;12.70;7.80;;;26.80;73.70;;;;;;6093306;23;20022;-87
2021/07/24 13:21:10;;;;;;;12.68;7.75;;;27.10;70.20;;;;;;6096547;23;20030;-87
2021/07/24 13:23:59;;;;;;;9.30;7.47;;;27.30;70.00;;;;;;6096750;23;20434;-87
2021/07/24 13:29:33;;;;;;;12.52;7.75;;;29.10;65.50;;;;;;6097628;23;20026;-87
2021/07/24 13:32:22;;;;;;;11.05;7.15;;;29.90;62.30;;;;;;6097789;23;20042;-88
2021/07/24 13:35:10;;;;;;;8.77;6.65;;;31.00;60.80;;;;;;6097312;23;20445;-86
2021/07/24 13:37:59;;;;;;;11.55;7.22;;;31.80;56.80;;;;;;6093979;23;20030;-87
2021/07/24 13:40:46;;;;;;;9.90;6.55;;;32.90;54.30;;;;;;6096647;23;20291;-86
2021/07/24 13:43:33;;;;;;;10.95;6.00;;;32.80;53.60;;;;;;6096474;23;20506;-87
2021/07/24 13:46:20;;;;;;;9.82;6.30;;;33.30;52.70;;;;;;6094301;23;20022;-86
2021/07/24 13:49:08;;;;;;;9.63;6.20;;;33.30;53.20;;;;;;6096279;23;20101;-86
2021/07/24 13:51:58;;;;;;;9.45;6.50;;;33.20;50.80;;;;;;6094842;23;20091;-86
2021/07/24 13:54:45;;;;;;;10.60;6.10;;;31.60;53.50;;;;;;6091292;23;20113;-84
2021/07/24 13:57:34;;;;;;;8.30;6.25;;;30.80;55.00;;;;;;6114113;23;20046;-86
2021/07/24 14:00:21;;;;;;;10.30;6.82;;;31.30;55.90;;;;;;6097416;23;20026;-85
2021/07/24 14:03:09;;;;;;;9.25;6.63;;;31.70;55.00;;;;;;6093091;23;20054;-84
2021/07/24 14:06:02;;;;;;;9.73;7.05;;;31.80;53.80;;;;;;6096079;23;20105;-85
2021/07/24 14:08:54;;;;;;;9.02;6.13;;;31.90;52.50;;;;;;6099646;23;20485;-89
2021/07/24 14:11:42;;;;;;;;;;;32.10;53.10;;;;;;6097020;23;20434;-91
2021/07/24 14:14:30;;;;;;;11.25;6.32;;;31.60;52.60;;;;;;6095862;23;19976;-90
2021/07/24 14:17:17;;;;;;;14.50;6.90;;;31.70;53.50;;;;;;6093667;23;20460;-89
2021/07/24 14:20:09;;;;;;;9.68;6.40;;;32.40;54.20;;;;;;6096985;23;20327;-90
2021/07/24 14:22:56;;;;;;;10.77;6.28;;;33.30;52.60;;;;;;6095159;23;20050;-90
2021/07/24 14:25:44;;;;;;;10.60;6.15;;;33.30;50.50;;;;;;6073948;23;20034;-87
2021/07/24 14:28:31;;;;;;;8.48;5.97;;;33.70;49.30;;;;;;6097819;23;20082;-89
2021/07/24 14:31:18;;;;;;;9.35;6.43;;;34.30;49.60;;;;;;6096106;23;20124;-89
2021/07/24 14:34:07;;;;;;;7.97;5.88;;;35.10;47.00;;;;;;6095670;23;20037;-89
2021/07/24 14:36:57;;;;;;;6.88;4.93;;;35.00;45.00;;;;;;6098520;23;20109;-86
2021/07/24 14:39:44;;;;;;;7.15;4.80;;;34.50;45.30;;;;;;6105669;23;20089;-87
2021/07/24 14:42:31;;;;;;;9.32;5.40;;;34.20;45.20;;;;;;6112487;23;20073;-87
2021/07/24 14:45:20;;;;;;;8.57;5.28;;;34.20;45.00;;;;;;6095676;23;20129;-89
2021/07/24 14:48:08;;;;;;;7.60;5.55;;;34.70;45.10;;;;;;6093343;23;20081;-86
2021/07/24 14:50:55;;;;;;;9.40;5.00;;;34.00;43.90;;;;;;6094829;23;20037;-87
2021/07/24 14:53:43;;;;;;;7.15;5.10;;;33.70;45.00;;;;;;6094319;23;20030;-87
2021/07/24 14:56:30;;;;;;;6.07;5.10;;;33.20;45.70;;;;;;6093315;23;20027;-89
2021/07/24 14:59:18;;;;;;;7.32;4.72;;;32.90;46.00;;;;;;6092429;23;20041;-86
2021/07/24 15:02:07;;;;;;;8.95;5.07;;;32.80;46.60;;;;;;6095784;23;20039;-88
2021/07/24 15:04:55;;;;;;;7.07;5.00;;;33.70;46.90;;;;;;6094344;23;20038;-87
2021/07/24 15:07:42;;;;;;;7.13;5.00;;;33.60;45.00;;;;;;6093932;23;20034;-85
2021/07/24 15:10:31;;;;;;;7.72;5.63;;;33.80;44.80;;;;;;6093604;23;20045;-88
2021/07/24 15:13:19;;;;;;;8.38;4.95;;;34.20;45.80;;;;;;6091922;23;20018;-87
2021/07/24 15:16:11;;;;;;;7.55;5.47;;;34.70;43.90;;;;;;6095655;23;20110;-90
2021/07/24 15:18:59;;;;;;;6.50;4.40;;;35.00;44.30;;;;;;6092158;23;20334;-87
2021/07/24 15:21:48;;;;;;;7.22;5.20;;;35.30;41.80;;;;;;6094205;23;20033;-87
2021/07/24 15:24:38;;;;;;;6.32;4.85;;;34.80;42.20;;;;;;6092848;23;20529;-87
2021/07/24 15:27:27;;;;;;;7.72;4.72;;;35.30;44.60;;;;;;6095739;23;20034;-87
2021/07/24 15:30:16;;;;;;;8.07;4.47;;;35.90;41.10;;;;;;6092062;23;20070;-86
2021/07/24 15:33:04;;;;;;;6.68;4.70;;;35.50;40.90;;;;;;6074085;23;20097;-86
2021/07/24 15:35:51;;;;;;;7.53;5.43;;;34.00;42.90;;;;;;6093697;23;20058;-87
2021/07/24 15:38:39;;;;;;;9.07;5.05;;;31.70;46.60;;;;;;6091910;23;20077;-85
2021/07/24 15:41:28;;;;;;;8.77;4.80;;;30.70;48.20;;;;;;6093124;23;20031;-85
2021/07/24 15:44:16;;;;;;;6.47;4.90;;;30.30;52.50;;;;;;6095864;23;20105;-87
2021/07/24 15:51:38;;;;;;;9.23;5.22;;;29.60;54.20;;;;;;6094645;23;20042;-89
2021/07/24 15:58:41;;;;;;;10.73;5.38;;;28.90;58.20;;;;;;5977553;24;20064;-89
2021/07/24 16:01:43;;;;;;;8.85;5.45;;;28.60;61.50;;;;;;5979384;23;20028;-83
2021/07/24 16:09:07;;;;;;;7.68;5.72;;;27.90;61.50;;;;;;5949047;24;20521;-88
2021/07/24 16:12:25;;;;;;;7.78;5.43;;;27.50;61.60;;;;;;5950582;24;20043;-88
2021/07/24 16:15:49;;;;;;;9.30;5.78;;;27.20;63.20;;;;;;5951954;24;20036;-89
2021/07/24 16:18:46;;;;;;;7.70;5.97;;;27.00;63.40;;;;;;5950485;24;20029;-89
2021/07/24 16:25:50;;;;;;;9.15;6.78;;;26.60;65.40;;;;;;5880764;24;20028;-89
2021/07/24 16:29:02;;;;;;;10.68;6.10;;;26.30;65.10;;;;;;5952902;24;20036;-87
2021/07/24 16:31:53;;;;;;;8.95;6.43;;;26.10;66.90;;;;;;5923124;24;20053;-88
2021/07/24 16:35:40;;;;;;;9.65;6.65;;;26.00;67.70;;;;;;6006024;23;20430;-87
2021/07/24 16:38:27;;;;;;;10.13;6.43;;;25.90;67.60;;;;;;6014370;23;20177;-88
2021/07/24 16:41:21;;;;;;;10.38;6.15;;;25.90;67.40;;;;;;6034909;23;20038;-87
2021/07/24 16:44:13;;;;;;;11.30;6.50;;;25.90;68.20;;;;;;6044858;23;20439;-88
2021/07/24 16:47:02;;;;;;;11.25;6.78;;;25.80;68.10;;;;;;6045936;23;20149;-87
2021/07/24 16:49:50;;;;;;;10.65;6.43;;;25.90;68.70;;;;;;6066620;23;20023;-87
2021/07/24 16:52:37;;;;;;;20.83;7.07;;;25.80;68.50;;;;;;6048046;23;20440;-88
2021/07/24 16:55:25;;;;;;;11.05;6.55;;;25.70;68.40;;;;;;6028240;23;20379;-88
2021/07/24 16:58:14;;;;;;;10.82;6.25;;;25.70;70.00;;;;;;6068724;23;20046;-89
2021/07/24 17:01:12;;;;;;;13.55;6.78;;;25.70;69.40;;;;;;6066686;23;20500;-89
2021/07/24 17:04:01;;;;;;;11.32;6.70;;;25.60;70.00;;;;;;6065758;23;20033;-89
2021/07/24 17:06:48;;;;;;;10.75;7.43;;;25.60;73.20;;;;;;6067589;23;20105;-88
2021/07/24 17:09:35;;;;;;;15.02;6.75;;;25.40;73.40;;;;;;6048461;23;20376;-88
2021/07/24 17:12:23;;;;;;;9.90;6.75;;;25.40;72.50;;;;;;6067448;23;20122;-86
2021/07/24 17:15:11;;;;;;;12.23;6.88;;;25.40;74.80;;;;;;6067618;23;20034;-86
2021/07/24 17:17:58;;;;;;;11.25;7.00;;;25.20;75.60;;;;;;6046000;23;20022;-89
2021/07/24 17:20:46;;;;;;;12.25;7.32;;;25.10;77.00;;;;;;6067505;23;20371;-88
2021/07/24 17:23:49;;;;;;;13.40;7.25;;;25.00;78.50;;;;;;6068182;23;20034;-87
2021/07/24 17:27:10;;;;;;;9.60;6.72;;;25.00;80.10;;;;;;6049034;23;20038;-89
2021/07/24 17:30:04;;;;;;;8.70;6.88;;;24.90;81.20;;;;;;6082871;23;20524;-90
2021/07/24 17:32:51;;;;;;;27.55;10.55;;;24.60;86.00;;;;;;6103469;23;20054;-88
2021/07/24 17:35:39;;;;;;;10.45;6.95;;;24.50;86.10;;;;;;6081061;23;20037;-87
2021/07/24 17:38:27;;;;;;;14.13;8.30;;;24.40;84.00;;;;;;6096604;23;20030;-89
2021/07/24 17:41:19;;;;;;;12.90;7.68;;;24.40;86.10;;;;;;6095684;23;20378;-88
2021/07/24 17:44:07;;;;;;;13.20;8.23;;;24.40;88.40;;;;;;6077341;23;20033;-88
2021/07/24 17:46:56;;;;;;;12.65;7.63;;;24.30;90.30;;;;;;6095915;23;20026;-89
2021/07/24 17:50:07;;;;;;;13.80;7.93;;;24.20;89.60;;;;;;6094983;23;20053;-89
2021/07/24 17:52:59;;;;;;;17.00;8.05;;;24.20;87.90;;;;;;6096001;23;20430;-89
2021/07/24 17:55:47;;;;;;;13.77;7.57;;;24.10;86.70;;;;;;6095244;23;20027;-89
2021/07/24 17:58:35;;;;;;;10.07;7.57;;;24.00;86.60;;;;;;6094844;23;20053;-88
2021/07/24 18:01:25;;;;;;;11.82;7.43;;;24.00;87.10;;;;;;6094646;23;20093;-92
2021/07/24 18:04:13;;;;;;;15.02;9.07;;;24.00;88.50;;;;;;6095475;23;20030;-90
2021/07/24 18:11:31;;;;;;;12.95;8.23;;;23.80;91.80;;;;;;6096875;23;20033;-89
2021/07/24 18:14:20;;;;;;;13.00;8.43;;;23.60;92.20;;;;;;6096666;23;20030;-89
2021/07/24 18:17:08;;;;;;;12.50;8.75;;;23.40;94.80;;;;;;6097215;23;20030;-86
2021/07/24 18:20:22;;;;;;;13.88;8.35;;;23.20;96.10;;;;;;6117329;23;20120;-88
2021/07/24 18:23:21;;;;;;;15.38;8.77;;;22.80;99.90;;;;;;6109375;23;20095;-87
2021/07/24 18:26:26;;;;;;;15.90;8.18;;;22.50;99.90;;;;;;6098254;23;20057;-87
2021/07/24 18:29:26;;;;;;;;;;;;;;;;;;;;;
2021/07/24 18:32:39;;;;;;;12.02;8.50;;;22.30;99.90;;;;;;6104011;23;20030;-87
2021/07/24 18:35:52;;;;;;;17.40;9.50;;;22.20;99.90;;;;;;6013971;23;20027;-89
2021/07/24 18:38:43;;;;;;;12.57;9.52;;;22.00;99.90;;;;;;6011541;23;20032;-89
2021/07/24 18:41:31;;;;;;;14.48;9.30;;;21.70;99.90;;;;;;6008860;23;20102;-88
2021/07/24 18:44:31;;;;;;;;;;;;;;;;;;;;;
2021/07/24 18:47:39;;;;;;;17.83;10.77;;;21.30;99.90;;;;;;6008005;23;20019;-90
2021/07/24 18:50:51;;;;;;;19.77;10.30;;;21.20;99.90;;;;;;6007299;23;20424;-90
2021/07/24 18:57:18;;;;;;;10.77;7.40;;;20.80;99.90;;;;;;6055629;23;20031;-89
2021/07/24 19:00:45;;;;;;;11.10;8.00;;;20.60;99.90;;;;;;6044577;23;20101;-89
2021/07/24 19:03:34;;;;;;;16.50;9.20;;;20.40;99.90;;;;;;6047424;23;20030;-89
2021/07/24 19:23:20;;;;;;;14.18;9.30;;;20.00;99.90;;;;;;5978358;23;20106;-88
2021/07/24 19:26:25;;;;;;;10.35;8.13;;;20.00;99.90;;;;;;6046274;23;20034;-89
2021/07/24 19:29:34;;;;;;;13.77;9.05;;;20.00;99.90;;;;;;6031123;23;20034;-88
2021/07/24 19:33:15;;;;;;;13.38;9.55;;;19.90;99.90;;;;;;6097982;23;20449;-89
2021/07/24 19:36:21;;;;;;;16.73;9.85;;;19.80;99.90;;;;;;6094737;23;20115;-91
2021/07/24 19:40:11;;;;;;;13.48;8.77;;;19.70;99.90;;;;;;6018770;23;20027;-88
2021/07/24 19:44:31;;;;;;;13.88;8.65;;;19.50;99.90;;;;;;5954161;23;20101;-91
2021/07/24 19:47:44;;;;;;;11.82;8.07;;;19.40;99.90;;;;;;5955428;24;20037;-91
2021/07/24 19:50:46;;;;;;;10.82;8.35;;;19.30;99.90;;;;;;5948066;24;20044;-90
2021/07/24 19:54:08;;;;;;;11.00;9.00;;;19.20;99.90;;;;;;5935494;24;20044;-89
2021/07/24 19:58:02;;;;;;;;;;;;;;;;;;;;;
2021/07/24 20:01:21;;;;;;;12.25;8.73;;;19.10;99.90;;;;;;5952279;24;20012;-89
2021/07/24 20:04:09;;;;;;;10.52;8.80;;;19.10;99.90;;;;;;5915028;24;20025;-87
2021/07/24 20:06:56;;;;;;;12.27;9.05;;;18.90;99.90;;;;;;5952457;24;20033;-88
2021/07/24 20:09:44;;;;;;;14.30;9.60;;;18.90;99.90;;;;;;5986107;23;20045;-90
2021/07/24 20:12:34;;;;;;;15.23;8.95;;;18.90;99.90;;;;;;6037642;23;20027;-90
2021/07/24 20:15:39;;;;;;;15.55;9.88;;;18.70;99.90;;;;;;6095703;23;20134;-90
2021/07/24 20:18:32;;;;;;;14.18;9.48;;;18.60;99.90;;;;;;6099406;23;20022;-90
2021/07/24 20:21:22;;;;;;;14.50;10.43;;;18.50;99.90;;;;;;6096029;23;20026;-90
2021/07/24 20:24:33;;;;;;;14.20;11.10;;;18.50;99.90;;;;;;6022756;23;20434;-89
2021/07/24 20:27:27;;;;;;;17.55;11.45;;;18.40;99.90;;;;;;6016486;23;20050;-91
2021/07/24 20:30:31;;;;;;;15.77;11.48;;;18.30;99.90;;;;;;6019516;23;20031;-89
2021/07/24 20:33:32;;;;;;;16.42;10.50;;;18.20;99.90;;;;;;6017505;23;20106;-90
2021/07/24 20:36:43;;;;;;;15.68;13.20;;;18.10;99.90;;;;;;6016872;23;20143;-90
2021/07/24 20:40:05;;;;;;;23.63;13.77;;;18.20;99.90;;;;;;6036590;23;20032;-93
2021/07/24 20:43:20;;;;;;;;;;;;;;;;;;;;;